sensor_id;sensor_type;location;lat;lon;timestamp;temperature;humidity
41678;DHT22;27364;49.026;8.712;2022-08-19T00:00:32;21.20;99.90
41678;DHT22;27364;49.026;8.712;2022-08-19T00:02:58;21.20;99.90
41678;DHT22;27364;49.026;8.712;2022-08-19T00:05:23;21.20;99.90
41678;DHT22;27364;49.026;8.712;2022-08-19T00:07:49;21.20;99.90
41678;DHT22;27364;49.026;8.712;2022-08-19T00:10:16;21.10;99.90
41678;DHT22;27364;49.026;8.712;2022-08-19T00:12:42;21.10;99.90
41678;DHT22;27364;49.026;8.712;2022-08-19T00:15:11;21.10;99.90
41678;DHT22;27364;49.026;8.712;2022-08-19T00:17:42;21.10;99.90
41678;DHT22;27364;49.026;8.712;2022-08-19T00:20:10;21.10;99.90
41678;DHT22;27364;49.026;8.712;2022-08-19T00:22:37;21.20;99.90
41678;DHT22;27364;49.026;8.712;2022-08-19T00:25:04;21.20;99.90
41678;DHT22;27364;49.026;8.712;2022-08-19T00:27:30;21.20;99.90
41678;DHT22;27364;49.026;8.712;2022-08-19T00:29:55;21.10;99.90
41678;DHT22;27364;49.026;8.712;2022-08-19T00:32:21;21.20;99.90
41678;DHT22;27364;49.026;8.712;2022-08-19T00:34:47;21.20;99.90
41678;DHT22;27364;49.026;8.712;2022-08-19T00:37:12;21.10;99.90
41678;DHT22;27364;49.026;8.712;2022-08-19T00:39:38;21.10;99.90
41678;DHT22;27364;49.026;8.712;2022-08-19T00:42:04;21.10;99.90
41678;DHT22;27364;49.026;8.712;2022-08-19T00:44:31;21.10;99.90
41678;DHT22;27364;49.026;8.712;2022-08-19T00:46:58;21.10;99.90
41678;DHT22;27364;49.026;8.712;2022-08-19T00:49:29;21.00;99.90
41678;DHT22;27364;49.026;8.712;2022-08-19T00:52:02;21.00;99.90
41678;DHT22;27364;49.026;8.712;2022-08-19T00:54:29;21.00;99.90
41678;DHT22;27364;49.026;8.712;2022-08-19T00:56:57;21.10;99.90
41678;DHT22;27364;49.026;8.712;2022-08-19T00:59:23;21.00;99.90
41678;DHT22;27364;49.026;8.712;2022-08-19T01:01:49;21.00;99.90
41678;DHT22;27364;49.026;8.712;2022-08-19T01:04:15;21.00;99.90
41678;DHT22;27364;49.026;8.712;2022-08-19T01:06:41;21.00;99.90
41678;DHT22;27364;49.026;8.712;2022-08-19T01:09:08;21.00;99.90
41678;DHT22;27364;49.026;8.712;2022-08-19T01:11:39;21.00;99.90
41678;DHT22;27364;49.026;8.712;2022-08-19T01:14:06;21.00;99.90
41678;DHT22;27364;49.026;8.712;2022-08-19T01:16:32;21.00;99.90
41678;DHT22;27364;49.026;8.712;2022-08-19T01:18:59;21.00;99.90
41678;DHT22;27364;49.026;8.712;2022-08-19T01:21:31;21.00;99.90
41678;DHT22;27364;49.026;8.712;2022-08-19T01:23:58;21.00;99.90
41678;DHT22;27364;49.026;8.712;2022-08-19T01:26:25;21.00;99.90
41678;DHT22;27364;49.026;8.712;2022-08-19T01:28:53;21.00;99.90
41678;DHT22;27364;49.026;8.712;2022-08-19T01:31:22;21.00;99.90
41678;DHT22;27364;49.026;8.712;2022-08-19T01:33:50;21.00;99.90
41678;DHT22;27364;49.026;8.712;2022-08-19T01:36:32;20.90;99.90
41678;DHT22;27364;49.026;8.712;2022-08-19T01:38:59;21.00;99.90
41678;DHT22;27364;49.026;8.712;2022-08-19T01:41:26;21.00;99.90
41678;DHT22;27364;49.026;8.712;2022-08-19T01:43:52;21.00;99.90
41678;DHT22;27364;49.026;8.712;2022-08-19T01:46:19;21.00;99.90
41678;DHT22;27364;49.026;8.712;2022-08-19T01:48:45;21.00;99.90
41678;DHT22;27364;49.026;8.712;2022-08-19T01:51:12;21.00;99.90
41678;DHT22;27364;49.026;8.712;2022-08-19T01:53:38;21.00;99.90
41678;DHT22;27364;49.026;8.712;2022-08-19T01:56:04;21.00;99.90
41678;DHT22;27364;49.026;8.712;2022-08-19T01:58:34;21.00;99.90
41678;DHT22;27364;49.026;8.712;2022-08-19T02:01:01;21.00;99.90
41678;DHT22;27364;49.026;8.712;2022-08-19T02:03:27;20.90;99.90
41678;DHT22;27364;49.026;8.712;2022-08-19T02:05:56;20.90;99.90
41678;DHT22;27364;49.026;8.712;2022-08-19T02:08:23;20.90;99.90
41678;DHT22;27364;49.026;8.712;2022-08-19T02:10:49;20.90;99.90
41678;DHT22;27364;49.026;8.712;2022-08-19T02:13:16;20.90;99.90
41678;DHT22;27364;49.026;8.712;2022-08-19T02:15:43;20.90;99.90
41678;DHT22;27364;49.026;8.712;2022-08-19T02:18:08;20.90;99.90
41678;DHT22;27364;49.026;8.712;2022-08-19T02:20:35;20.90;99.90
41678;DHT22;27364;49.026;8.712;2022-08-19T02:23:01;20.90;99.90
41678;DHT22;27364;49.026;8.712;2022-08-19T02:25:27;20.80;99.90
41678;DHT22;27364;49.026;8.712;2022-08-19T02:27:53;20.80;99.90
41678;DHT22;27364;49.026;8.712;2022-08-19T02:30:20;20.80;99.90
41678;DHT22;27364;49.026;8.712;2022-08-19T02:32:45;20.70;99.90
41678;DHT22;27364;49.026;8.712;2022-08-19T02:35:13;20.70;99.90
41678;DHT22;27364;49.026;8.712;2022-08-19T02:37:40;20.70;99.90
41678;DHT22;27364;49.026;8.712;2022-08-19T02:40:24;20.70;99.90
41678;DHT22;27364;49.026;8.712;2022-08-19T02:42:50;20.70;99.90
41678;DHT22;27364;49.026;8.712;2022-08-19T02:45:16;20.70;99.90
41678;DHT22;27364;49.026;8.712;2022-08-19T02:47:41;20.70;99.90
41678;DHT22;27364;49.026;8.712;2022-08-19T02:50:08;20.70;99.90
41678;DHT22;27364;49.026;8.712;2022-08-19T02:52:34;20.70;99.90
41678;DHT22;27364;49.026;8.712;2022-08-19T02:55:01;20.60;99.90
41678;DHT22;27364;49.026;8.712;2022-08-19T02:57:27;20.60;99.90
41678;DHT22;27364;49.026;8.712;2022-08-19T02:59:52;20.60;99.90
41678;DHT22;27364;49.026;8.712;2022-08-19T03:02:19;20.60;99.90
41678;DHT22;27364;49.026;8.712;2022-08-19T03:04:45;20.60;99.90
41678;DHT22;27364;49.026;8.712;2022-08-19T03:07:14;20.60;99.90
41678;DHT22;27364;49.026;8.712;2022-08-19T03:09:40;20.60;99.90
41678;DHT22;27364;49.026;8.712;2022-08-19T03:12:05;20.60;99.90
41678;DHT22;27364;49.026;8.712;2022-08-19T03:14:32;20.60;99.90
41678;DHT22;27364;49.026;8.712;2022-08-19T03:16:58;20.50;99.90
41678;DHT22;27364;49.026;8.712;2022-08-19T03:19:24;20.50;99.90
41678;DHT22;27364;49.026;8.712;2022-08-19T03:21:50;20.50;99.90
41678;DHT22;27364;49.026;8.712;2022-08-19T03:24:17;20.50;99.90
41678;DHT22;27364;49.026;8.712;2022-08-19T03:26:46;20.50;99.90
41678;DHT22;27364;49.026;8.712;2022-08-19T03:29:13;20.50;99.90
41678;DHT22;27364;49.026;8.712;2022-08-19T03:31:40;20.50;99.90
41678;DHT22;27364;49.026;8.712;2022-08-19T03:34:06;20.40;99.90
41678;DHT22;27364;49.026;8.712;2022-08-19T03:36:32;20.50;99.90
41678;DHT22;27364;49.026;8.712;2022-08-19T03:38:59;20.50;99.90
41678;DHT22;27364;49.026;8.712;2022-08-19T03:41:33;20.50;99.90
41678;DHT22;27364;49.026;8.712;2022-08-19T03:44:02;20.50;99.90
41678;DHT22;27364;49.026;8.712;2022-08-19T03:46:30;20.50;99.90
41678;DHT22;27364;49.026;8.712;2022-08-19T03:48:58;20.50;99.90
41678;DHT22;27364;49.026;8.712;2022-08-19T03:51:26;20.40;99.90
41678;DHT22;27364;49.026;8.712;2022-08-19T03:53:54;20.40;99.90
41678;DHT22;27364;49.026;8.712;2022-08-19T03:56:20;20.40;99.90
41678;DHT22;27364;49.026;8.712;2022-08-19T03:58:46;20.40;99.90
41678;DHT22;27364;49.026;8.712;2022-08-19T04:01:17;20.40;99.90
41678;DHT22;27364;49.026;8.712;2022-08-19T04:03:43;20.30;99.90
41678;DHT22;27364;49.026;8.712;2022-08-19T04:06:19;20.30;99.90
41678;DHT22;27364;49.026;8.712;2022-08-19T04:08:48;20.30;99.90
41678;DHT22;27364;49.026;8.712;2022-08-19T04:11:18;20.40;99.90
41678;DHT22;27364;49.026;8.712;2022-08-19T04:13:46;20.40;99.90
41678;DHT22;27364;49.026;8.712;2022-08-19T04:16:12;20.30;99.90
41678;DHT22;27364;49.026;8.712;2022-08-19T04:18:39;20.30;99.90
41678;DHT22;27364;49.026;8.712;2022-08-19T04:21:07;20.30;99.90
41678;DHT22;27364;49.026;8.712;2022-08-19T04:23:34;20.30;99.90
41678;DHT22;27364;49.026;8.712;2022-08-19T04:26:01;20.30;99.90
41678;DHT22;27364;49.026;8.712;2022-08-19T04:28:27;20.30;99.90
41678;DHT22;27364;49.026;8.712;2022-08-19T04:30:54;20.30;99.90
41678;DHT22;27364;49.026;8.712;2022-08-19T04:33:23;20.30;99.90
41678;DHT22;27364;49.026;8.712;2022-08-19T04:35:51;20.30;99.90
41678;DHT22;27364;49.026;8.712;2022-08-19T04:38:19;20.20;99.90
41678;DHT22;27364;49.026;8.712;2022-08-19T04:40:48;20.20;99.90
41678;DHT22;27364;49.026;8.712;2022-08-19T04:43:35;20.20;99.90
41678;DHT22;27364;49.026;8.712;2022-08-19T04:46:11;20.20;99.90
41678;DHT22;27364;49.026;8.712;2022-08-19T04:48:38;20.20;99.90
41678;DHT22;27364;49.026;8.712;2022-08-19T04:51:10;20.20;99.90
41678;DHT22;27364;49.026;8.712;2022-08-19T04:53:38;20.30;99.90
41678;DHT22;27364;49.026;8.712;2022-08-19T04:56:06;20.20;99.90
41678;DHT22;27364;49.026;8.712;2022-08-19T04:58:33;20.20;99.90
41678;DHT22;27364;49.026;8.712;2022-08-19T05:00:59;20.30;99.90
41678;DHT22;27364;49.026;8.712;2022-08-19T05:03:25;20.30;99.90
41678;DHT22;27364;49.026;8.712;2022-08-19T05:05:51;20.40;99.90
41678;DHT22;27364;49.026;8.712;2022-08-19T05:08:19;20.40;99.90
41678;DHT22;27364;49.026;8.712;2022-08-19T05:10:47;20.40;99.90
41678;DHT22;27364;49.026;8.712;2022-08-19T05:13:13;20.40;99.90
41678;DHT22;27364;49.026;8.712;2022-08-19T05:15:40;20.40;99.90
41678;DHT22;27364;49.026;8.712;2022-08-19T05:18:05;20.50;99.90
41678;DHT22;27364;49.026;8.712;2022-08-19T05:20:49;20.50;99.90
41678;DHT22;27364;49.026;8.712;2022-08-19T05:23:33;20.50;99.90
41678;DHT22;27364;49.026;8.712;2022-08-19T05:25:59;20.50;99.90
41678;DHT22;27364;49.026;8.712;2022-08-19T05:28:24;20.50;99.90
41678;DHT22;27364;49.026;8.712;2022-08-19T05:30:50;20.60;99.90
41678;DHT22;27364;49.026;8.712;2022-08-19T05:33:17;20.50;99.90
41678;DHT22;27364;49.026;8.712;2022-08-19T05:35:43;20.50;99.90
41678;DHT22;27364;49.026;8.712;2022-08-19T05:38:10;20.50;99.90
41678;DHT22;27364;49.026;8.712;2022-08-19T05:40:37;20.50;99.90
41678;DHT22;27364;49.026;8.712;2022-08-19T05:43:05;20.50;99.90
41678;DHT22;27364;49.026;8.712;2022-08-19T05:45:31;20.50;99.90
41678;DHT22;27364;49.026;8.712;2022-08-19T05:47:57;20.60;99.90
41678;DHT22;27364;49.026;8.712;2022-08-19T05:50:24;20.60;99.90
41678;DHT22;27364;49.026;8.712;2022-08-19T05:52:51;20.60;99.90
41678;DHT22;27364;49.026;8.712;2022-08-19T05:55:16;20.60;99.90
41678;DHT22;27364;49.026;8.712;2022-08-19T05:57:42;20.60;99.90
41678;DHT22;27364;49.026;8.712;2022-08-19T06:00:08;20.60;99.90
41678;DHT22;27364;49.026;8.712;2022-08-19T06:02:36;20.70;99.90
41678;DHT22;27364;49.026;8.712;2022-08-19T06:05:03;20.70;99.90
41678;DHT22;27364;49.026;8.712;2022-08-19T06:07:29;20.70;99.90
41678;DHT22;27364;49.026;8.712;2022-08-19T06:09:55;20.70;99.90
41678;DHT22;27364;49.026;8.712;2022-08-19T06:12:21;20.70;99.90
41678;DHT22;27364;49.026;8.712;2022-08-19T06:14:56;20.70;99.90
41678;DHT22;27364;49.026;8.712;2022-08-19T06:17:21;20.70;99.90
41678;DHT22;27364;49.026;8.712;2022-08-19T06:19:50;20.80;99.90
41678;DHT22;27364;49.026;8.712;2022-08-19T06:22:16;20.80;99.90
41678;DHT22;27364;49.026;8.712;2022-08-19T06:24:41;20.80;99.90
41678;DHT22;27364;49.026;8.712;2022-08-19T06:27:07;20.90;99.90
41678;DHT22;27364;49.026;8.712;2022-08-19T06:29:36;20.90;99.90
41678;DHT22;27364;49.026;8.712;2022-08-19T06:32:03;20.90;99.90
41678;DHT22;27364;49.026;8.712;2022-08-19T06:34:32;20.90;99.90
41678;DHT22;27364;49.026;8.712;2022-08-19T06:36:59;21.00;99.90
41678;DHT22;27364;49.026;8.712;2022-08-19T06:39:28;20.90;99.90
41678;DHT22;27364;49.026;8.712;2022-08-19T06:41:57;21.00;99.90
41678;DHT22;27364;49.026;8.712;2022-08-19T06:44:26;21.00;99.90
41678;DHT22;27364;49.026;8.712;2022-08-19T06:46:52;21.00;99.90
41678;DHT22;27364;49.026;8.712;2022-08-19T06:49:18;21.00;99.90
41678;DHT22;27364;49.026;8.712;2022-08-19T06:51:46;21.10;99.90
41678;DHT22;27364;49.026;8.712;2022-08-19T06:54:15;21.10;99.90
41678;DHT22;27364;49.026;8.712;2022-08-19T06:56:41;21.10;99.90
41678;DHT22;27364;49.026;8.712;2022-08-19T06:59:14;21.10;99.90
41678;DHT22;27364;49.026;8.712;2022-08-19T07:01:42;21.10;99.90
41678;DHT22;27364;49.026;8.712;2022-08-19T07:04:09;21.20;99.90
41678;DHT22;27364;49.026;8.712;2022-08-19T07:06:36;21.20;99.90
41678;DHT22;27364;49.026;8.712;2022-08-19T07:09:03;21.20;99.90
41678;DHT22;27364;49.026;8.712;2022-08-19T07:11:29;21.20;99.90
41678;DHT22;27364;49.026;8.712;2022-08-19T07:13:55;21.20;99.90
41678;DHT22;27364;49.026;8.712;2022-08-19T07:16:21;21.30;99.90
41678;DHT22;27364;49.026;8.712;2022-08-19T07:18:48;21.30;99.90
41678;DHT22;27364;49.026;8.712;2022-08-19T07:21:18;21.30;99.90
41678;DHT22;27364;49.026;8.712;2022-08-19T07:23:45;21.30;99.90
41678;DHT22;27364;49.026;8.712;2022-08-19T07:26:13;21.30;99.90
41678;DHT22;27364;49.026;8.712;2022-08-19T07:28:39;21.40;99.90
41678;DHT22;27364;49.026;8.712;2022-08-19T07:31:07;21.40;99.90
41678;DHT22;27364;49.026;8.712;2022-08-19T07:33:33;21.30;99.90
41678;DHT22;27364;49.026;8.712;2022-08-19T07:36:01;21.30;99.90
41678;DHT22;27364;49.026;8.712;2022-08-19T07:38:26;21.30;99.90
41678;DHT22;27364;49.026;8.712;2022-08-19T07:40:52;21.30;99.90
41678;DHT22;27364;49.026;8.712;2022-08-19T07:43:19;21.40;99.90
41678;DHT22;27364;49.026;8.712;2022-08-19T07:45:46;21.40;99.90
41678;DHT22;27364;49.026;8.712;2022-08-19T07:48:12;21.40;99.90
41678;DHT22;27364;49.026;8.712;2022-08-19T07:50:37;21.40;99.90
41678;DHT22;27364;49.026;8.712;2022-08-19T07:53:03;21.40;99.90
41678;DHT22;27364;49.026;8.712;2022-08-19T07:55:29;21.50;99.90
41678;DHT22;27364;49.026;8.712;2022-08-19T07:57:55;21.50;99.90
41678;DHT22;27364;49.026;8.712;2022-08-19T08:00:20;21.60;99.90
41678;DHT22;27364;49.026;8.712;2022-08-19T08:02:46;21.70;99.90
41678;DHT22;27364;49.026;8.712;2022-08-19T08:05:12;21.70;99.90
41678;DHT22;27364;49.026;8.712;2022-08-19T08:07:56;21.80;99.90
41678;DHT22;27364;49.026;8.712;2022-08-19T08:10:40;21.90;99.90
41678;DHT22;27364;49.026;8.712;2022-08-19T08:13:06;22.00;99.90
41678;DHT22;27364;49.026;8.712;2022-08-19T08:15:32;22.00;99.90
41678;DHT22;27364;49.026;8.712;2022-08-19T08:17:57;22.10;99.90
41678;DHT22;27364;49.026;8.712;2022-08-19T08:20:24;22.10;99.90
41678;DHT22;27364;49.026;8.712;2022-08-19T08:22:50;22.30;99.90
41678;DHT22;27364;49.026;8.712;2022-08-19T08:25:35;22.30;99.90
41678;DHT22;27364;49.026;8.712;2022-08-19T08:28:02;22.40;99.90
41678;DHT22;27364;49.026;8.712;2022-08-19T08:30:29;22.40;99.90
41678;DHT22;27364;49.026;8.712;2022-08-19T08:32:55;22.50;99.90
41678;DHT22;27364;49.026;8.712;2022-08-19T08:35:23;22.60;99.90
41678;DHT22;27364;49.026;8.712;2022-08-19T08:37:50;22.60;99.90
41678;DHT22;27364;49.026;8.712;2022-08-19T08:41:04;22.70;99.90
41678;DHT22;27364;49.026;8.712;2022-08-19T08:46:05;22.70;99.90
41678;DHT22;27364;49.026;8.712;2022-08-19T08:48:51;22.70;99.90
41678;DHT22;27364;49.026;8.712;2022-08-19T08:51:33;22.80;99.90
41678;DHT22;27364;49.026;8.712;2022-08-19T08:53:59;22.80;99.90
41678;DHT22;27364;49.026;8.712;2022-08-19T08:56:26;22.80;99.90
41678;DHT22;27364;49.026;8.712;2022-08-19T08:59:05;22.80;99.90
41678;DHT22;27364;49.026;8.712;2022-08-19T09:01:34;22.80;99.90
41678;DHT22;27364;49.026;8.712;2022-08-19T09:04:02;22.80;99.90
41678;DHT22;27364;49.026;8.712;2022-08-19T09:06:30;22.90;99.90
41678;DHT22;27364;49.026;8.712;2022-08-19T09:09:14;23.00;99.90
41678;DHT22;27364;49.026;8.712;2022-08-19T09:14:46;23.20;99.90
41678;DHT22;27364;49.026;8.712;2022-08-19T09:17:13;23.20;99.90
41678;DHT22;27364;49.026;8.712;2022-08-19T09:22:22;23.40;99.90
41678;DHT22;27364;49.026;8.712;2022-08-19T09:24:49;23.50;99.90
41678;DHT22;27364;49.026;8.712;2022-08-19T09:27:17;23.50;99.90
41678;DHT22;27364;49.026;8.712;2022-08-19T09:29:43;23.50;99.90
41678;DHT22;27364;49.026;8.712;2022-08-19T09:32:08;23.50;99.90
41678;DHT22;27364;49.026;8.712;2022-08-19T09:34:34;23.60;99.90
41678;DHT22;27364;49.026;8.712;2022-08-19T09:36:59;23.60;99.90
41678;DHT22;27364;49.026;8.712;2022-08-19T09:39:25;23.70;99.90
41678;DHT22;27364;49.026;8.712;2022-08-19T09:41:51;23.80;99.90
41678;DHT22;27364;49.026;8.712;2022-08-19T09:44:17;23.90;99.60
41678;DHT22;27364;49.026;8.712;2022-08-19T09:46:43;24.00;99.50
41678;DHT22;27364;49.026;8.712;2022-08-19T09:49:08;24.10;98.40
41678;DHT22;27364;49.026;8.712;2022-08-19T09:51:34;24.30;98.50
41678;DHT22;27364;49.026;8.712;2022-08-19T09:56:28;24.70;97.30
41678;DHT22;27364;49.026;8.712;2022-08-19T09:58:54;24.90;96.20
41678;DHT22;27364;49.026;8.712;2022-08-19T10:01:22;25.00;95.10
41678;DHT22;27364;49.026;8.712;2022-08-19T10:03:54;24.90;95.10
41678;DHT22;27364;49.026;8.712;2022-08-19T10:06:23;24.90;95.40
41678;DHT22;27364;49.026;8.712;2022-08-19T10:08:49;24.90;95.70
41678;DHT22;27364;49.026;8.712;2022-08-19T10:11:15;24.80;95.40
41678;DHT22;27364;49.026;8.712;2022-08-19T10:13:43;24.90;95.20
41678;DHT22;27364;49.026;8.712;2022-08-19T10:16:12;25.00;95.20
41678;DHT22;27364;49.026;8.712;2022-08-19T10:18:38;25.20;95.30
41678;DHT22;27364;49.026;8.712;2022-08-19T10:21:14;25.40;94.30
41678;DHT22;27364;49.026;8.712;2022-08-19T10:23:43;25.50;93.60
41678;DHT22;27364;49.026;8.712;2022-08-19T10:26:12;25.40;93.00
41678;DHT22;27364;49.026;8.712;2022-08-19T10:28:38;25.40;93.00
41678;DHT22;27364;49.026;8.712;2022-08-19T10:31:05;25.30;92.90
41678;DHT22;27364;49.026;8.712;2022-08-19T10:33:31;25.20;92.80
41678;DHT22;27364;49.026;8.712;2022-08-19T10:36:06;25.10;92.90
41678;DHT22;27364;49.026;8.712;2022-08-19T10:38:32;25.10;93.00
41678;DHT22;27364;49.026;8.712;2022-08-19T10:41:25;25.20;92.30
41678;DHT22;27364;49.026;8.712;2022-08-19T10:43:53;25.60;92.10
41678;DHT22;27364;49.026;8.712;2022-08-19T10:46:21;25.80;90.90
41678;DHT22;27364;49.026;8.712;2022-08-19T10:48:47;25.90;91.00
41678;DHT22;27364;49.026;8.712;2022-08-19T10:51:13;26.00;90.30
41678;DHT22;27364;49.026;8.712;2022-08-19T10:53:58;25.90;88.60
41678;DHT22;27364;49.026;8.712;2022-08-19T10:56:24;26.00;90.70
41678;DHT22;27364;49.026;8.712;2022-08-19T10:59:08;26.30;88.40
41678;DHT22;27364;49.026;8.712;2022-08-19T11:01:34;26.40;88.40
41678;DHT22;27364;49.026;8.712;2022-08-19T11:04:03;26.40;86.20
41678;DHT22;27364;49.026;8.712;2022-08-19T11:06:31;26.30;84.30
41678;DHT22;27364;49.026;8.712;2022-08-19T11:08:57;26.20;84.30
41678;DHT22;27364;49.026;8.712;2022-08-19T11:11:23;26.10;85.00
41678;DHT22;27364;49.026;8.712;2022-08-19T11:13:49;26.20;85.90
41678;DHT22;27364;49.026;8.712;2022-08-19T11:16:26;26.20;85.40
41678;DHT22;27364;49.026;8.712;2022-08-19T11:18:54;26.10;84.80
41678;DHT22;27364;49.026;8.712;2022-08-19T11:21:29;26.10;85.60
41678;DHT22;27364;49.026;8.712;2022-08-19T11:24:03;26.10;85.30
41678;DHT22;27364;49.026;8.712;2022-08-19T11:26:30;26.00;84.70
41678;DHT22;27364;49.026;8.712;2022-08-19T11:28:57;26.10;85.20
41678;DHT22;27364;49.026;8.712;2022-08-19T11:31:26;26.10;82.70
41678;DHT22;27364;49.026;8.712;2022-08-19T11:33:52;26.10;82.70
41678;DHT22;27364;49.026;8.712;2022-08-19T11:36:20;26.30;83.70
41678;DHT22;27364;49.026;8.712;2022-08-19T11:38:49;26.20;83.80
41678;DHT22;27364;49.026;8.712;2022-08-19T11:41:17;26.30;83.00
41678;DHT22;27364;49.026;8.712;2022-08-19T11:43:43;26.50;83.60
41678;DHT22;27364;49.026;8.712;2022-08-19T11:46:11;26.60;83.00
41678;DHT22;27364;49.026;8.712;2022-08-19T11:48:37;26.80;81.20
41678;DHT22;27364;49.026;8.712;2022-08-19T11:51:05;26.90;80.90
41678;DHT22;27364;49.026;8.712;2022-08-19T11:53:32;27.30;80.10
41678;DHT22;27364;49.026;8.712;2022-08-19T11:55:58;27.30;79.50
41678;DHT22;27364;49.026;8.712;2022-08-19T11:58:24;27.40;78.30
41678;DHT22;27364;49.026;8.712;2022-08-19T12:00:51;27.60;75.60
41678;DHT22;27364;49.026;8.712;2022-08-19T12:03:16;27.50;75.70
41678;DHT22;27364;49.026;8.712;2022-08-19T12:05:43;27.40;75.60
41678;DHT22;27364;49.026;8.712;2022-08-19T12:08:09;27.40;76.00
41678;DHT22;27364;49.026;8.712;2022-08-19T12:10:35;27.30;75.80
41678;DHT22;27364;49.026;8.712;2022-08-19T12:13:01;27.30;77.50
41678;DHT22;27364;49.026;8.712;2022-08-19T12:15:27;27.50;76.00
41678;DHT22;27364;49.026;8.712;2022-08-19T12:17:55;27.50;76.10
41678;DHT22;27364;49.026;8.712;2022-08-19T12:20:23;27.60;76.20
41678;DHT22;27364;49.026;8.712;2022-08-19T12:22:49;27.90;75.10
41678;DHT22;27364;49.026;8.712;2022-08-19T12:25:15;27.90;73.60
41678;DHT22;27364;49.026;8.712;2022-08-19T12:27:42;27.70;74.00
41678;DHT22;27364;49.026;8.712;2022-08-19T12:30:10;27.60;73.40
41678;DHT22;27364;49.026;8.712;2022-08-19T12:32:37;27.50;71.80
41678;DHT22;27364;49.026;8.712;2022-08-19T12:35:04;27.30;71.20
41678;DHT22;27364;49.026;8.712;2022-08-19T12:37:30;27.20;71.00
41678;DHT22;27364;49.026;8.712;2022-08-19T12:39:57;27.00;71.70
41678;DHT22;27364;49.026;8.712;2022-08-19T12:42:22;27.00;71.30
41678;DHT22;27364;49.026;8.712;2022-08-19T12:44:48;26.90;71.60
41678;DHT22;27364;49.026;8.712;2022-08-19T12:47:13;26.80;71.70
41678;DHT22;27364;49.026;8.712;2022-08-19T12:49:40;26.70;71.70
41678;DHT22;27364;49.026;8.712;2022-08-19T12:52:07;26.70;71.70
41678;DHT22;27364;49.026;8.712;2022-08-19T12:54:35;26.60;70.70
41678;DHT22;27364;49.026;8.712;2022-08-19T12:57:05;26.40;69.40
41678;DHT22;27364;49.026;8.712;2022-08-19T12:59:30;26.40;71.20
41678;DHT22;27364;49.026;8.712;2022-08-19T13:01:56;26.30;71.10
41678;DHT22;27364;49.026;8.712;2022-08-19T13:04:22;26.40;70.00
41678;DHT22;27364;49.026;8.712;2022-08-19T13:06:48;26.40;69.20
41678;DHT22;27364;49.026;8.712;2022-08-19T13:09:13;26.40;69.70
41678;DHT22;27364;49.026;8.712;2022-08-19T13:11:39;26.40;70.20
41678;DHT22;27364;49.026;8.712;2022-08-19T13:14:05;26.50;69.50
41678;DHT22;27364;49.026;8.712;2022-08-19T13:16:31;26.60;69.40
41678;DHT22;27364;49.026;8.712;2022-08-19T13:18:57;26.70;68.10
41678;DHT22;27364;49.026;8.712;2022-08-19T13:21:25;26.70;66.80
41678;DHT22;27364;49.026;8.712;2022-08-19T13:23:52;26.70;66.50
41678;DHT22;27364;49.026;8.712;2022-08-19T13:26:18;26.70;66.80
41678;DHT22;27364;49.026;8.712;2022-08-19T13:28:45;26.70;65.20
41678;DHT22;27364;49.026;8.712;2022-08-19T13:31:32;26.80;66.10
41678;DHT22;27364;49.026;8.712;2022-08-19T13:34:18;26.80;66.70
41678;DHT22;27364;49.026;8.712;2022-08-19T13:36:45;26.80;67.10
41678;DHT22;27364;49.026;8.712;2022-08-19T13:39:11;26.90;67.70
41678;DHT22;27364;49.026;8.712;2022-08-19T13:41:37;26.90;66.70
41678;DHT22;27364;49.026;8.712;2022-08-19T13:44:08;26.80;66.70
41678;DHT22;27364;49.026;8.712;2022-08-19T13:46:33;26.80;67.70
41678;DHT22;27364;49.026;8.712;2022-08-19T13:48:59;26.80;66.70
41678;DHT22;27364;49.026;8.712;2022-08-19T13:51:24;26.80;68.60
41678;DHT22;27364;49.026;8.712;2022-08-19T13:53:50;26.60;68.30
41678;DHT22;27364;49.026;8.712;2022-08-19T13:56:17;26.70;69.00
41678;DHT22;27364;49.026;8.712;2022-08-19T13:58:45;26.50;68.90
41678;DHT22;27364;49.026;8.712;2022-08-19T14:01:10;26.50;69.80
41678;DHT22;27364;49.026;8.712;2022-08-19T14:03:37;26.70;69.30
41678;DHT22;27364;49.026;8.712;2022-08-19T14:06:03;26.70;69.70
41678;DHT22;27364;49.026;8.712;2022-08-19T14:08:28;26.70;69.00
41678;DHT22;27364;49.026;8.712;2022-08-19T14:10:55;26.60;69.20
41678;DHT22;27364;49.026;8.712;2022-08-19T14:13:22;26.50;69.00
41678;DHT22;27364;49.026;8.712;2022-08-19T14:15:48;26.50;68.20
41678;DHT22;27364;49.026;8.712;2022-08-19T14:18:16;26.50;69.30
41678;DHT22;27364;49.026;8.712;2022-08-19T14:20:42;26.50;68.20
41678;DHT22;27364;49.026;8.712;2022-08-19T14:23:08;26.70;66.10
41678;DHT22;27364;49.026;8.712;2022-08-19T14:25:34;26.70;65.40
41678;DHT22;27364;49.026;8.712;2022-08-19T14:28:01;26.70;67.30
41678;DHT22;27364;49.026;8.712;2022-08-19T14:30:29;26.70;66.40
41678;DHT22;27364;49.026;8.712;2022-08-19T14:32:56;26.60;66.90
41678;DHT22;27364;49.026;8.712;2022-08-19T14:35:24;26.70;66.80
41678;DHT22;27364;49.026;8.712;2022-08-19T14:37:50;26.70;68.20
41678;DHT22;27364;49.026;8.712;2022-08-19T14:40:18;27.00;65.90
41678;DHT22;27364;49.026;8.712;2022-08-19T14:42:46;27.10;66.90
41678;DHT22;27364;49.026;8.712;2022-08-19T14:45:14;26.90;66.10
41678;DHT22;27364;49.026;8.712;2022-08-19T14:47:40;27.10;64.10
41678;DHT22;27364;49.026;8.712;2022-08-19T14:50:07;27.10;64.10
41678;DHT22;27364;49.026;8.712;2022-08-19T14:52:34;27.10;62.40
41678;DHT22;27364;49.026;8.712;2022-08-19T14:54:59;27.10;62.80
41678;DHT22;27364;49.026;8.712;2022-08-19T14:57:25;27.20;63.10
41678;DHT22;27364;49.026;8.712;2022-08-19T14:59:51;27.10;62.00
41678;DHT22;27364;49.026;8.712;2022-08-19T15:02:16;27.10;62.50
41678;DHT22;27364;49.026;8.712;2022-08-19T15:04:42;27.00;62.50
41678;DHT22;27364;49.026;8.712;2022-08-19T15:07:07;27.10;63.30
41678;DHT22;27364;49.026;8.712;2022-08-19T15:09:33;27.10;63.20
41678;DHT22;27364;49.026;8.712;2022-08-19T15:12:00;27.10;63.90
41678;DHT22;27364;49.026;8.712;2022-08-19T15:14:27;27.10;62.60
41678;DHT22;27364;49.026;8.712;2022-08-19T15:16:53;27.10;63.60
41678;DHT22;27364;49.026;8.712;2022-08-19T15:19:19;27.10;61.50
41678;DHT22;27364;49.026;8.712;2022-08-19T15:21:45;27.20;62.10
41678;DHT22;27364;49.026;8.712;2022-08-19T15:24:10;27.10;62.00
41678;DHT22;27364;49.026;8.712;2022-08-19T15:26:36;27.10;62.00
41678;DHT22;27364;49.026;8.712;2022-08-19T15:29:02;27.10;62.00
41678;DHT22;27364;49.026;8.712;2022-08-19T15:31:29;27.10;60.80
41678;DHT22;27364;49.026;8.712;2022-08-19T15:33:59;26.90;61.00
41678;DHT22;27364;49.026;8.712;2022-08-19T15:36:26;26.90;61.60
41678;DHT22;27364;49.026;8.712;2022-08-19T15:38:51;27.00;62.10
41678;DHT22;27364;49.026;8.712;2022-08-19T15:41:26;26.90;61.70
41678;DHT22;27364;49.026;8.712;2022-08-19T15:44:05;26.80;61.30